Terminal Aerodrome Forecast
Issued by NWS

Home | Current Version | Previous Version | Text Only | Print | Product List | Glossary On
Versions: 1 2 3 4 5 6 7 8 9 10 11 12 13 14 15 16 17 18 19
000
FTUS41 KPBZ 012000 AAA
TAFMGW
TAF AMD
KMGW 012059Z 0121/0218 15006KT 6SM -RA BR OVC050
     FM020400 14008KT 2SM -RA BR OVC008
     FM020700 19008KT 1SM -RA BR OVC005
     FM021400 24012KT 4SM -SHRASN OVC015=

USA.gov is the U.S. government's official web portal to all federal, state and local government web resources and services.